Time;durP1;ratioP1;P1;durP2;ratioP2;P2;SDS_P1;SDS_P2;PMS_P1;PMS_P2;Temp;Humidity;BMP_temperature;BMP_pressure;BME280_temperature;BME280_humidity;BME280_pressure;Samples;Min_cycle;Max_cycle;Signal;HPM_P1;HPM_P2
2023/06/13 00:00:59;;;;;;;6.43;2.25;;;19.30;50.70;;;;;;5016520;28;20095;-78
2023/06/13 00:03:26;;;;;;;7.10;2.70;;;19.30;50.60;;;;;;5015764;28;20037;-78
2023/06/13 00:05:54;;;;;;;4.35;2.20;;;19.30;50.70;;;;;;5016105;28;20091;-77
2023/06/13 00:08:21;;;;;;;4.10;2.10;;;19.20;50.60;;;;;;5016056;28;20037;-77
2023/06/13 00:10:50;;;;;;;5.32;2.47;;;19.30;50.80;;;;;;5032617;28;20504;-77
2023/06/13 00:13:16;;;;;;;6.82;2.42;;;19.20;50.70;;;;;;5032647;28;20037;-77
2023/06/13 00:15:50;;;;;;;7.43;2.47;;;19.20;50.70;;;;;;5016283;28;20083;-78
2023/06/13 00:18:19;;;;;;;5.13;2.05;;;19.20;51.00;;;;;;5032453;28;20046;-78
2023/06/13 00:20:45;;;;;;;5.68;2.53;;;19.30;51.00;;;;;;5015974;28;20083;-77
2023/06/13 00:23:12;;;;;;;5.10;2.38;;;19.20;51.20;;;;;;5032777;28;20041;-78
2023/06/13 00:25:38;;;;;;;4.28;2.30;;;19.10;51.20;;;;;;5015713;28;20110;-77
2023/06/13 00:28:04;;;;;;;4.45;2.28;;;19.10;51.20;;;;;;5032255;28;20045;-77
2023/06/13 00:30:30;;;;;;;3.65;2.00;;;19.20;51.30;;;;;;5015601;28;20037;-77
2023/06/13 00:32:55;;;;;;;5.88;2.35;;;19.20;51.40;;;;;;5015795;28;20041;-77
2023/06/13 00:35:21;;;;;;;5.53;2.17;;;19.10;51.60;;;;;;5032563;28;20052;-77
2023/06/13 00:37:50;;;;;;;5.00;2.50;;;19.10;51.70;;;;;;5032243;28;20047;-77
2023/06/13 00:40:18;;;;;;;3.38;2.10;;;19.00;51.60;;;;;;5015919;28;20510;-77
2023/06/13 00:42:44;;;;;;;4.28;2.00;;;19.10;51.70;;;;;;5032214;28;20041;-77
2023/06/13 00:45:21;;;;;;;4.28;2.28;;;19.00;51.70;;;;;;5032044;28;20037;-77
2023/06/13 00:47:55;;;;;;;8.30;2.53;;;19.00;51.80;;;;;;5015591;28;20037;-77
2023/06/13 00:50:26;;;;;;;5.45;2.10;;;18.90;51.80;;;;;;5015705;28;20033;-77
2023/06/13 00:52:57;;;;;;;5.88;2.58;;;18.90;51.90;;;;;;5032106;28;20045;-77
2023/06/13 00:55:25;;;;;;;4.25;2.20;;;18.90;51.90;;;;;;5032364;28;20083;-78
2023/06/13 00:57:55;;;;;;;5.47;2.20;;;18.80;52.00;;;;;;5032010;28;20123;-77
2023/06/13 01:00:26;;;;;;;3.70;2.17;;;18.80;51.90;;;;;;5032028;28;20120;-77
2023/06/13 01:02:55;;;;;;;4.38;2.45;;;18.80;52.00;;;;;;5015483;28;20041;-78
2023/06/13 01:05:25;;;;;;;8.20;2.50;;;18.80;52.00;;;;;;5032035;28;20094;-77
2023/06/13 01:07:52;;;;;;;5.28;2.13;;;18.80;52.10;;;;;;5035062;28;20105;-77
2023/06/13 01:10:19;;;;;;;3.42;1.98;;;18.80;52.30;;;;;;5019621;28;20474;-77
2023/06/13 01:12:54;;;;;;;5.65;2.22;;;18.70;52.20;;;;;;5019175;28;20059;-77
2023/06/13 01:15:21;;;;;;;5.43;2.20;;;18.70;52.30;;;;;;5035773;28;20494;-77
2023/06/13 01:17:57;;;;;;;4.97;2.35;;;18.70;52.30;;;;;;5019121;28;20045;-77
2023/06/13 01:20:26;;;;;;;;;;;18.70;52.50;;;;;;5019772;28;20083;-77
2023/06/13 01:23:28;;;;;;;4.45;2.20;;;18.60;52.50;;;;;;5018779;28;20016;-77
2023/06/13 01:26:07;;;;;;;4.40;2.17;;;18.60;52.60;;;;;;5035192;28;20135;-77
2023/06/13 01:28:35;;;;;;;5.13;1.90;;;18.60;52.50;;;;;;5035526;28;20104;-77
2023/06/13 01:31:07;;;;;;;4.82;2.13;;;18.50;52.50;;;;;;5035362;28;20045;-77
2023/06/13 01:33:34;;;;;;;5.95;2.40;;;18.50;52.70;;;;;;5018565;28;20041;-77
2023/06/13 01:36:00;;;;;;;7.40;2.65;;;18.50;52.80;;;;;;5019057;28;20447;-77
2023/06/13 01:38:26;;;;;;;8.50;2.08;;;18.50;52.90;;;;;;5053115;28;20117;-77
2023/06/13 01:40:52;;;;;;;4.40;2.25;;;18.50;53.80;;;;;;5035129;28;20044;-77
2023/06/13 01:43:17;;;;;;;5.97;2.33;;;18.40;53.20;;;;;;5035006;28;20414;-77
2023/06/13 01:45:43;;;;;;;6.60;2.58;;;18.40;53.40;;;;;;5034941;28;20045;-78
2023/06/13 01:48:39;;;;;;;5.93;2.38;;;18.40;53.60;;;;;;5018897;28;20091;-78
2023/06/13 01:51:36;;;;;;;5.00;2.45;;;18.30;53.50;;;;;;5018487;28;20041;-77
2023/06/13 01:54:04;;;;;;;3.85;2.30;;;18.30;54.10;;;;;;4993914;28;20087;-77
2023/06/13 01:56:32;;;;;;;4.65;2.28;;;18.30;53.80;;;;;;5034726;28;20518;-77
2023/06/13 01:59:06;;;;;;;7.03;2.50;;;18.30;53.90;;;;;;5018387;28;20033;-78
2023/06/13 02:01:34;;;;;;;4.40;2.50;;;18.20;54.10;;;;;;5035059;28;20084;-78
2023/06/13 02:04:01;;;;;;;4.95;2.78;;;18.20;54.00;;;;;;5034600;28;20048;-77
2023/06/13 02:06:28;;;;;;;6.95;2.42;;;18.10;54.10;;;;;;5017904;28;20398;-77
2023/06/13 02:08:55;;;;;;;6.18;2.33;;;18.10;54.20;;;;;;5034668;28;20037;-77
2023/06/13 02:11:21;;;;;;;4.60;2.50;;;18.10;54.20;;;;;;5034547;28;20037;-77
2023/06/13 02:13:48;;;;;;;5.32;2.50;;;18.00;54.20;;;;;;5017634;28;20106;-77
2023/06/13 02:16:14;;;;;;;5.43;2.30;;;18.00;54.30;;;;;;5034736;28;20032;-77
2023/06/13 02:18:40;;;;;;;6.82;2.75;;;18.10;54.30;;;;;;5016976;28;20168;-77
2023/06/13 02:21:06;;;;;;;5.88;2.30;;;18.00;55.10;;;;;;5034177;28;20127;-77
2023/06/13 02:23:32;;;;;;;6.68;2.33;;;18.00;54.50;;;;;;5033865;28;20037;-77
2023/06/13 02:25:58;;;;;;;4.40;2.20;;;17.90;54.70;;;;;;5034107;28;20049;-77
2023/06/13 02:28:23;;;;;;;5.65;2.70;;;17.90;54.90;;;;;;5034107;28;20045;-77
2023/06/13 02:30:49;;;;;;;3.97;2.42;;;17.90;54.90;;;;;;5017756;28;20131;-77
2023/06/13 02:33:15;;;;;;;6.85;2.55;;;17.90;55.10;;;;;;5034399;28;20051;-77
2023/06/13 02:35:45;;;;;;;5.95;2.17;;;17.90;55.10;;;;;;5051968;28;20045;-77
2023/06/13 02:38:11;;;;;;;5.10;2.70;;;17.80;55.00;;;;;;5034518;28;20119;-77
2023/06/13 02:40:40;;;;;;;5.55;2.85;;;17.80;55.20;;;;;;5017278;28;20605;-77
2023/06/13 02:43:06;;;;;;;4.32;2.50;;;17.70;55.30;;;;;;5033893;28;20385;-77
2023/06/13 02:45:32;;;;;;;3.95;2.40;;;17.80;55.50;;;;;;5033960;28;20526;-77
2023/06/13 02:47:58;;;;;;;5.75;2.70;;;17.70;55.50;;;;;;5033619;28;20037;-77
2023/06/13 02:50:24;;;;;;;4.82;2.30;;;17.70;55.60;;;;;;5033973;28;20372;-77
2023/06/13 02:52:50;;;;;;;4.18;2.28;;;17.70;55.70;;;;;;5017353;28;20037;-77
2023/06/13 02:55:17;;;;;;;5.13;2.30;;;17.60;55.60;;;;;;5033965;28;20037;-77
2023/06/13 02:57:44;;;;;;;3.80;2.20;;;17.60;55.80;;;;;;5033839;28;20048;-77
2023/06/13 03:00:11;;;;;;;6.70;2.60;;;17.70;55.90;;;;;;5033722;28;20048;-77
2023/06/13 03:02:38;;;;;;;6.85;2.50;;;17.60;56.00;;;;;;5016999;28;20036;-77
2023/06/13 03:05:09;;;;;;;4.20;2.35;;;17.60;56.00;;;;;;5033715;28;20369;-77
2023/06/13 03:07:35;;;;;;;6.28;2.65;;;17.50;56.10;;;;;;5051332;28;20041;-77
2023/06/13 03:10:06;;;;;;;5.03;2.40;;;17.50;56.30;;;;;;5033847;28;20123;-77
2023/06/13 03:12:31;;;;;;;4.32;2.08;;;17.50;56.50;;;;;;5017253;28;20145;-77
2023/06/13 03:14:57;;;;;;;4.32;2.33;;;17.40;56.70;;;;;;5033549;28;20506;-77
2023/06/13 03:17:23;;;;;;;4.20;2.35;;;17.40;56.80;;;;;;5017159;28;20379;-77
2023/06/13 03:19:50;;;;;;;5.25;2.72;;;17.40;56.90;;;;;;5033480;28;20491;-77
2023/06/13 03:22:16;;;;;;;4.47;2.42;;;17.40;57.20;;;;;;5017290;28;20139;-77
2023/06/13 03:24:42;;;;;;;5.35;2.33;;;17.30;57.20;;;;;;5032746;28;20061;-77
2023/06/13 03:27:09;;;;;;;5.72;2.15;;;17.30;57.30;;;;;;5033046;28;20041;-77
2023/06/13 03:29:35;;;;;;;4.10;2.20;;;17.20;57.50;;;;;;5032786;28;20053;-77
2023/06/13 03:32:01;;;;;;;3.85;2.00;;;17.20;57.70;;;;;;5033240;28;20151;-77
2023/06/13 03:34:29;;;;;;;5.20;2.67;;;17.20;57.60;;;;;;5033352;28;20131;-77
2023/06/13 03:36:55;;;;;;;4.97;2.47;;;17.10;57.60;;;;;;5032874;28;20036;-77
2023/06/13 03:39:21;;;;;;;4.80;2.35;;;17.20;57.90;;;;;;5033223;28;20099;-78
2023/06/13 03:41:46;;;;;;;3.83;2.22;;;17.10;57.50;;;;;;5016457;28;20528;-77
2023/06/13 03:44:12;;;;;;;4.97;2.22;;;17.10;57.60;;;;;;5032940;28;20037;-77
2023/06/13 03:46:38;;;;;;;4.10;2.05;;;17.00;57.80;;;;;;5032602;28;20479;-77
2023/06/13 03:49:03;;;;;;;4.80;2.50;;;17.00;57.80;;;;;;5016575;28;20132;-77
2023/06/13 03:51:29;;;;;;;4.95;2.38;;;17.10;57.90;;;;;;5032711;28;20041;-77
2023/06/13 03:53:55;;;;;;;5.85;2.33;;;17.10;58.00;;;;;;5032523;28;20493;-78
2023/06/13 03:56:20;;;;;;;5.20;2.28;;;17.10;57.90;;;;;;5016684;28;20123;-77
2023/06/13 03:58:46;;;;;;;3.67;2.10;;;17.00;58.00;;;;;;5033005;28;20490;-77
2023/06/13 04:01:12;;;;;;;4.07;2.20;;;17.00;58.00;;;;;;5032645;28;20071;-77
2023/06/13 04:03:39;;;;;;;4.07;2.42;;;17.10;58.20;;;;;;5032643;28;20051;-77
2023/06/13 04:06:06;;;;;;;5.57;2.30;;;17.00;58.00;;;;;;5016148;28;20519;-77
2023/06/13 04:08:31;;;;;;;4.00;2.22;;;17.00;58.00;;;;;;5016161;28;20044;-77
2023/06/13 04:10:57;;;;;;;3.80;2.30;;;17.00;58.20;;;;;;5032746;28;20037;-77
2023/06/13 04:13:23;;;;;;;4.43;2.00;;;16.90;58.10;;;;;;5016003;28;20059;-77
2023/06/13 04:15:50;;;;;;;3.88;2.10;;;17.00;58.50;;;;;;5032210;28;20047;-77
2023/06/13 04:18:18;;;;;;;5.82;2.40;;;17.00;58.50;;;;;;5016179;28;20063;-77
2023/06/13 04:20:44;;;;;;;3.63;1.98;;;17.00;58.40;;;;;;5016418;28;20041;-77
2023/06/13 04:23:10;;;;;;;6.40;2.20;;;17.00;58.30;;;;;;5032399;28;20131;-77
2023/06/13 04:25:36;;;;;;;5.05;2.20;;;17.00;58.30;;;;;;5032195;28;20482;-77
2023/06/13 04:28:02;;;;;;;4.03;2.13;;;17.00;58.30;;;;;;5032286;28;20045;-77
2023/06/13 04:30:28;;;;;;;4.03;1.80;;;17.00;58.40;;;;;;5032561;28;20037;-77
2023/06/13 04:32:57;;;;;;;3.83;2.08;;;17.00;58.60;;;;;;5015906;28;20129;-77
2023/06/13 04:35:23;;;;;;;3.20;2.00;;;17.10;58.40;;;;;;5032402;28;20073;-77
2023/06/13 04:37:49;;;;;;;5.65;2.35;;;17.10;58.30;;;;;;5032340;28;20123;-77
2023/06/13 04:40:14;;;;;;;4.65;2.33;;;17.10;58.40;;;;;;5032617;28;20483;-77
2023/06/13 04:42:47;;;;;;;5.63;2.22;;;17.10;58.30;;;;;;5035192;28;20040;-77
2023/06/13 04:45:13;;;;;;;5.43;1.85;;;17.20;58.60;;;;;;5036224;28;20479;-77
2023/06/13 04:47:39;;;;;;;3.97;2.00;;;17.20;58.50;;;;;;5036104;28;20538;-77
2023/06/13 04:50:06;;;;;;;6.20;2.17;;;17.20;58.30;;;;;;5019763;28;20072;-77
2023/06/13 04:52:35;;;;;;;4.88;2.28;;;17.20;58.30;;;;;;5019490;28;20070;-77
2023/06/13 04:55:02;;;;;;;4.00;1.95;;;17.20;58.30;;;;;;5019120;28;20040;-77
2023/06/13 04:57:28;;;;;;;5.00;1.95;;;17.20;58.40;;;;;;5035731;28;20086;-77
2023/06/13 05:00:00;;;;;;;4.22;2.03;;;17.20;58.50;;;;;;5035916;28;20044;-77
2023/06/13 05:02:27;;;;;;;9.20;2.33;;;17.20;58.40;;;;;;5019546;28;20041;-77
2023/06/13 05:04:52;;;;;;;5.45;2.35;;;17.20;58.30;;;;;;5019204;28;20132;-77
2023/06/13 05:07:19;;;;;;;4.57;2.00;;;17.30;58.30;;;;;;5035686;28;20410;-77
2023/06/13 05:09:45;;;;;;;8.00;2.17;;;17.30;58.40;;;;;;5035826;28;20045;-77
2023/06/13 05:12:12;;;;;;;4.75;2.20;;;17.30;58.20;;;;;;5019201;28;20041;-77
2023/06/13 05:14:40;;;;;;;3.20;1.90;;;17.30;58.50;;;;;;5035585;28;20056;-77
2023/06/13 05:17:09;;;;;;;3.30;1.95;;;17.30;58.30;;;;;;5019009;28;20123;-77
2023/06/13 05:19:37;;;;;;;3.72;1.85;;;17.30;58.20;;;;;;5035739;28;20048;-77
2023/06/13 05:22:04;;;;;;;6.57;2.28;;;17.30;58.30;;;;;;5035809;28;20040;-77
2023/06/13 05:24:30;;;;;;;4.15;2.05;;;17.30;58.20;;;;;;5018300;28;20045;-77
2023/06/13 05:26:56;;;;;;;5.20;2.03;;;17.50;58.20;;;;;;5018829;28;20536;-77
2023/06/13 05:29:21;;;;;;;4.72;2.20;;;17.40;58.10;;;;;;5035255;28;20044;-77
2023/06/13 05:31:47;;;;;;;4.13;2.08;;;17.40;58.10;;;;;;5035418;28;20127;-77
2023/06/13 05:34:13;;;;;;;4.10;2.22;;;17.40;58.10;;;;;;5035742;28;20095;-77
2023/06/13 05:36:39;;;;;;;4.68;2.42;;;17.40;58.20;;;;;;5035326;28;20051;-77
2023/06/13 05:39:04;;;;;;;5.82;2.22;;;17.40;58.20;;;;;;5018437;28;20041;-77
2023/06/13 05:41:30;;;;;;;3.40;1.83;;;17.50;58.80;;;;;;5035039;28;20044;-77
2023/06/13 05:43:56;;;;;;;5.75;2.10;;;17.40;58.00;;;;;;5034928;28;20064;-77
2023/06/13 05:46:21;;;;;;;4.80;2.22;;;17.40;57.90;;;;;;5052749;28;20037;-77
2023/06/13 05:48:47;;;;;;;4.65;2.20;;;17.40;57.90;;;;;;5034936;28;20087;-77
2023/06/13 05:51:12;;;;;;;5.57;1.85;;;17.50;57.90;;;;;;5035245;28;20044;-77
2023/06/13 05:53:38;;;;;;;3.95;1.90;;;17.50;58.10;;;;;;5033307;28;20049;-77
2023/06/13 05:56:05;;;;;;;6.25;2.58;;;17.60;58.30;;;;;;5034768;28;20037;-77
2023/06/13 05:58:30;;;;;;;4.50;2.20;;;17.50;58.30;;;;;;5034738;28;20069;-77
2023/06/13 06:00:57;;;;;;;5.78;2.45;;;17.50;58.40;;;;;;5018475;28;20072;-77
2023/06/13 06:03:23;;;;;;;4.35;2.28;;;17.60;58.30;;;;;;5018318;28;20394;-77
2023/06/13 06:05:48;;;;;;;3.95;2.10;;;17.50;58.30;;;;;;5034502;28;20037;-76
2023/06/13 06:08:14;;;;;;;6.70;2.70;;;17.60;58.30;;;;;;5034884;28;20037;-77
2023/06/13 06:10:40;;;;;;;3.90;2.20;;;17.60;58.20;;;;;;5034523;28;20447;-77
2023/06/13 06:13:05;;;;;;;4.68;2.22;;;17.60;58.20;;;;;;5017976;28;20051;-77
2023/06/13 06:15:37;;;;;;;4.57;2.25;;;17.70;58.20;;;;;;5034247;28;20405;-77
2023/06/13 06:18:03;;;;;;;5.25;2.03;;;17.70;58.00;;;;;;5034516;28;20083;-77
2023/06/13 06:20:28;;;;;;;5.88;2.53;;;17.70;58.10;;;;;;5017782;28;20080;-77
2023/06/13 06:22:54;;;;;;;3.85;2.13;;;17.80;58.10;;;;;;5033896;28;20052;-77
2023/06/13 06:25:20;;;;;;;3.78;1.92;;;17.80;57.60;;;;;;5034025;28;20135;-77
2023/06/13 06:27:46;;;;;;;4.97;2.28;;;17.80;57.50;;;;;;5034100;28;20072;-77
2023/06/13 06:30:13;;;;;;;4.70;1.90;;;17.90;57.70;;;;;;5018087;28;20125;-77
2023/06/13 06:32:38;;;;;;;5.68;2.40;;;18.10;57.60;;;;;;5034346;28;20505;-77
2023/06/13 06:35:04;;;;;;;6.65;2.78;;;18.70;56.60;;;;;;5017585;28;20033;-78
2023/06/13 06:37:30;;;;;;;5.95;2.50;;;20.00;54.70;;;;;;5034114;28;20120;-77
2023/06/13 06:39:56;;;;;;;5.47;2.13;;;21.30;52.70;;;;;;5034225;28;20041;-77
2023/06/13 06:42:22;;;;;;;4.00;1.83;;;22.50;50.80;;;;;;5034055;28;20090;-77
2023/06/13 06:44:48;;;;;;;2.53;1.35;;;23.60;49.30;;;;;;5033768;28;20041;-77
2023/06/13 06:47:14;;;;;;;3.92;2.30;;;24.40;47.90;;;;;;5017664;28;20048;-77
2023/06/13 06:49:41;;;;;;;4.20;1.90;;;24.90;46.50;;;;;;5033609;28;20032;-77
2023/06/13 06:52:07;;;;;;;4.82;2.08;;;24.90;46.40;;;;;;5017324;28;20033;-77
2023/06/13 06:54:32;;;;;;;4.30;2.13;;;24.40;46.70;;;;;;5017103;28;20398;-78
2023/06/13 06:56:58;;;;;;;2.97;1.60;;;23.80;47.50;;;;;;5033787;28;20041;-78
2023/06/13 06:59:24;;;;;;;3.05;1.80;;;23.10;47.90;;;;;;5033726;28;20041;-77
2023/06/13 07:01:50;;;;;;;4.68;1.83;;;22.70;48.40;;;;;;5016918;28;20483;-77
2023/06/13 07:04:16;;;;;;;4.22;1.85;;;22.30;48.80;;;;;;5016596;28;20041;-77
2023/06/13 07:06:42;;;;;;;4.10;1.70;;;22.00;49.20;;;;;;5016950;28;20043;-77
2023/06/13 07:09:10;;;;;;;5.90;1.58;;;21.80;49.40;;;;;;5033375;28;20037;-78
2023/06/13 07:11:35;;;;;;;4.45;1.67;;;21.50;49.50;;;;;;5017051;28;20349;-78
2023/06/13 07:14:01;;;;;;;4.07;1.40;;;21.30;49.40;;;;;;5033435;28;20047;-77
2023/06/13 07:16:27;;;;;;;3.00;1.80;;;21.20;49.70;;;;;;5033137;28;20131;-77
2023/06/13 07:18:52;;;;;;;5.25;1.67;;;21.10;49.70;;;;;;5016602;28;20052;-77
2023/06/13 07:21:18;;;;;;;5.03;1.83;;;21.00;49.70;;;;;;5016984;28;20048;-77
2023/06/13 07:23:44;;;;;;;3.90;1.75;;;20.90;49.90;;;;;;5033103;28;20037;-78
2023/06/13 07:26:11;;;;;;;5.30;1.70;;;20.80;49.90;;;;;;5016829;28;20057;-77
2023/06/13 07:28:37;;;;;;;4.88;1.73;;;20.80;50.00;;;;;;5033178;28;20486;-77
2023/06/13 07:31:02;;;;;;;2.55;1.45;;;20.80;50.20;;;;;;5033088;28;20040;-77
2023/06/13 07:33:28;;;;;;;4.00;1.90;;;20.80;50.50;;;;;;5033063;28;20048;-77
2023/06/13 07:35:54;;;;;;;3.53;1.77;;;20.70;50.60;;;;;;5033000;28;20084;-77
2023/06/13 07:38:20;;;;;;;5.88;1.50;;;20.70;50.60;;;;;;5016422;28;20036;-77
2023/06/13 07:40:46;;;;;;;4.07;2.08;;;20.70;50.60;;;;;;5032999;28;20131;-77
2023/06/13 07:43:11;;;;;;;2.90;1.42;;;20.70;50.60;;;;;;5032989;28;20029;-77
2023/06/13 07:45:37;;;;;;;3.47;1.73;;;20.70;50.30;;;;;;5016550;28;20198;-77
2023/06/13 07:48:03;;;;;;;5.70;1.70;;;20.60;50.30;;;;;;5016166;28;20499;-77
2023/06/13 07:50:28;;;;;;;4.80;1.75;;;20.60;50.30;;;;;;5032708;28;20032;-77
2023/06/13 07:52:54;;;;;;;2.97;1.38;;;20.70;51.20;;;;;;5016237;28;20045;-77
2023/06/13 07:55:21;;;;;;;5.03;1.63;;;20.70;50.70;;;;;;5032595;28;20037;-77
2023/06/13 07:57:47;;;;;;;2.72;1.52;;;20.70;50.60;;;;;;5032951;28;20072;-77
2023/06/13 08:00:16;;;;;;;4.07;1.73;;;20.70;50.40;;;;;;5033103;28;20451;-77
2023/06/13 08:02:42;;;;;;;4.82;1.40;;;20.70;50.50;;;;;;5016102;28;20044;-77
2023/06/13 08:05:08;;;;;;;3.55;1.55;;;20.80;50.40;;;;;;5032482;28;20037;-77
2023/06/13 08:07:34;;;;;;;2.58;1.40;;;20.80;50.50;;;;;;5015984;28;20376;-77
2023/06/13 08:10:00;;;;;;;2.33;1.45;;;20.70;50.50;;;;;;5016211;28;20403;-77
2023/06/13 08:12:25;;;;;;;3.47;1.48;;;20.80;50.40;;;;;;5032591;28;20120;-77
2023/06/13 08:14:51;;;;;;;3.80;1.60;;;20.80;50.20;;;;;;5032856;28;20036;-77
2023/06/13 08:17:17;;;;;;;2.67;1.30;;;20.90;50.10;;;;;;5018516;28;20478;-77
2023/06/13 08:19:50;;;;;;;3.45;1.60;;;20.90;50.00;;;;;;5037125;28;20040;-77
2023/06/13 08:22:16;;;;;;;4.15;1.58;;;21.00;49.70;;;;;;5036952;28;20049;-77
2023/06/13 08:24:41;;;;;;;4.68;1.30;;;21.00;49.60;;;;;;5036478;28;20045;-77
2023/06/13 08:27:07;;;;;;;2.88;1.30;;;21.00;49.40;;;;;;5019922;28;20041;-78
2023/06/13 08:29:33;;;;;;;4.00;1.30;;;21.00;49.00;;;;;;5036387;28;20048;-77
2023/06/13 08:31:59;;;;;;;2.65;1.20;;;21.10;48.70;;;;;;5036268;28;20380;-78
2023/06/13 08:34:26;;;;;;;3.03;1.33;;;21.10;48.70;;;;;;5019892;28;20045;-78
2023/06/13 08:36:52;;;;;;;2.95;1.30;;;21.10;48.20;;;;;;5019603;28;20041;-77
2023/06/13 08:39:17;;;;;;;3.15;1.70;;;21.20;48.00;;;;;;5036134;28;20041;-77
2023/06/13 08:41:44;;;;;;;2.47;1.10;;;21.30;47.30;;;;;;5054230;28;20112;-78
2023/06/13 08:44:10;;;;;;;3.65;1.20;;;21.30;46.70;;;;;;5036075;28;20406;-77
2023/06/13 08:46:36;;;;;;;3.92;1.40;;;21.20;45.90;;;;;;5019544;28;20048;-77
2023/06/13 08:49:02;;;;;;;3.70;1.35;;;21.30;46.00;;;;;;5036228;28;20044;-78
2023/06/13 08:51:30;;;;;;;2.50;1.33;;;21.30;46.00;;;;;;5036228;28;20033;-78
2023/06/13 08:54:02;;;;;;;2.33;1.10;;;21.40;45.20;;;;;;5036066;28;20037;-77
2023/06/13 08:56:32;;;;;;;2.75;1.17;;;21.40;45.30;;;;;;5035966;28;20045;-77
2023/06/13 08:59:06;;;;;;;5.10;1.70;;;21.40;45.50;;;;;;5035465;28;20049;-78
2023/06/13 09:01:32;;;;;;;2.83;1.63;;;21.40;45.10;;;;;;5036161;28;20052;-78
2023/06/13 09:03:58;;;;;;;3.25;1.50;;;21.40;45.30;;;;;;5035665;28;20067;-77
2023/06/13 09:06:24;;;;;;;2.90;1.50;;;21.50;45.30;;;;;;5019347;28;20073;-77
2023/06/13 09:08:53;;;;;;;2.80;1.27;;;21.50;45.20;;;;;;5035380;28;20064;-77
2023/06/13 09:11:19;;;;;;;2.97;1.40;;;21.50;44.80;;;;;;5019212;28;20033;-78
2023/06/13 09:13:46;;;;;;;4.15;1.30;;;21.60;44.80;;;;;;5035876;28;20052;-77
2023/06/13 09:16:12;;;;;;;2.35;1.40;;;21.60;44.40;;;;;;5035659;28;20493;-78
2023/06/13 09:18:42;;;;;;;2.55;1.40;;;21.60;44.50;;;;;;5035710;28;20371;-77
2023/06/13 09:21:09;;;;;;;3.25;1.20;;;21.70;44.30;;;;;;5019142;28;20060;-78
2023/06/13 09:23:35;;;;;;;4.75;1.40;;;21.80;44.10;;;;;;5035151;28;20049;-78
2023/06/13 09:26:02;;;;;;;3.65;1.55;;;21.80;44.80;;;;;;5035132;28;20517;-77
2023/06/13 09:28:42;;;;;;;3.00;1.35;;;21.80;44.00;;;;;;5035047;28;20146;-78
2023/06/13 09:31:09;;;;;;;4.53;1.60;;;21.90;44.30;;;;;;5035127;28;20048;-78
2023/06/13 09:33:35;;;;;;;2.45;1.15;;;21.90;43.80;;;;;;5035344;28;20120;-77
2023/06/13 09:36:02;;;;;;;3.85;1.45;;;21.90;43.80;;;;;;5018783;28;20044;-77
2023/06/13 09:38:28;;;;;;;2.42;1.00;;;21.90;43.80;;;;;;5035059;28;20517;-77
2023/06/13 09:40:57;;;;;;;3.00;1.42;;;21.90;43.70;;;;;;5034901;28;20041;-77
2023/06/13 09:43:23;;;;;;;3.10;1.30;;;21.90;43.50;;;;;;5035228;28;20486;-77
2023/06/13 09:45:50;;;;;;;3.50;1.60;;;22.00;43.70;;;;;;5035118;28;20052;-78
2023/06/13 09:48:17;;;;;;;3.70;1.55;;;22.00;43.90;;;;;;5018382;28;20045;-77
2023/06/13 09:50:43;;;;;;;3.33;1.42;;;22.00;43.60;;;;;;5018696;28;20394;-77
2023/06/13 09:53:09;;;;;;;3.30;1.70;;;22.10;43.50;;;;;;5034734;28;20037;-78
2023/06/13 09:55:36;;;;;;;5.57;1.70;;;22.10;43.30;;;;;;5034876;28;20040;-78
2023/06/13 09:58:03;;;;;;;2.95;1.52;;;22.20;43.20;;;;;;5034532;28;20033;-77
2023/06/13 10:00:29;;;;;;;3.65;1.40;;;22.20;43.10;;;;;;5034663;28;20071;-78
2023/06/13 10:02:58;;;;;;;2.92;1.35;;;22.20;43.00;;;;;;5018345;28;20127;-78
2023/06/13 10:05:24;;;;;;;3.40;1.50;;;22.20;43.10;;;;;;5034857;28;20412;-78
2023/06/13 10:07:53;;;;;;;3.00;1.48;;;22.20;43.20;;;;;;5017950;28;20029;-78
2023/06/13 10:10:19;;;;;;;3.08;1.30;;;22.30;43.20;;;;;;5034530;28;20069;-77
2023/06/13 10:13:03;;;;;;;4.00;1.50;;;22.40;43.30;;;;;;5034765;28;20080;-77
2023/06/13 10:15:33;;;;;;;4.35;1.60;;;22.30;43.30;;;;;;5034570;28;20033;-76
2023/06/13 10:18:02;;;;;;;2.75;1.27;;;22.30;43.50;;;;;;5034275;28;20033;-77
2023/06/13 10:20:29;;;;;;;3.38;1.60;;;22.30;43.50;;;;;;5017900;28;20094;-77
2023/06/13 10:22:56;;;;;;;5.60;1.75;;;22.40;43.70;;;;;;5018015;28;20033;-77
2023/06/13 10:25:26;;;;;;;3.80;1.70;;;22.50;43.70;;;;;;5034003;28;20057;-77
2023/06/13 10:27:54;;;;;;;4.57;1.77;;;22.60;43.30;;;;;;5017970;28;20041;-78
2023/06/13 10:30:32;;;;;;;2.85;1.60;;;22.60;43.20;;;;;;5017777;28;20466;-76
2023/06/13 10:33:08;;;;;;;2.47;1.50;;;22.60;42.50;;;;;;5034176;28;20474;-78
2023/06/13 10:36:07;;;;;;;3.42;1.50;;;22.60;42.90;;;;;;5017599;28;20510;-77
2023/06/13 10:39:09;;;;;;;2.75;1.70;;;22.60;42.90;;;;;;5033484;28;20041;-77
2023/06/13 10:41:41;;;;;;;2.97;1.67;;;22.70;42.80;;;;;;4997439;28;20052;-77
2023/06/13 10:44:28;;;;;;;4.00;1.50;;;22.70;42.80;;;;;;5033727;28;20041;-77
2023/06/13 10:46:54;;;;;;;3.08;1.85;;;22.80;42.80;;;;;;5033961;28;20045;-77
2023/06/13 10:49:21;;;;;;;3.17;1.55;;;22.80;43.10;;;;;;5016989;28;20509;-77
2023/06/13 10:51:46;;;;;;;4.25;1.55;;;22.80;43.00;;;;;;5033790;28;20098;-76
2023/06/13 10:54:14;;;;;;;3.55;1.35;;;22.90;43.00;;;;;;5034252;28;20534;-77
2023/06/13 10:56:42;;;;;;;3.03;1.58;;;22.90;42.80;;;;;;5033478;28;20513;-76
2023/06/13 10:59:10;;;;;;;3.97;1.58;;;22.90;42.90;;;;;;5033357;28;20074;-77
2023/06/13 11:01:37;;;;;;;3.65;1.52;;;22.90;43.00;;;;;;5033655;28;20049;-77
2023/06/13 11:04:08;;;;;;;3.45;1.52;;;22.90;42.90;;;;;;5016683;28;20487;-77
2023/06/13 11:06:35;;;;;;;3.45;1.45;;;22.90;43.00;;;;;;5033541;28;20041;-77
2023/06/13 11:09:21;;;;;;;6.97;1.95;;;23.00;43.00;;;;;;5033606;28;20343;-77
2023/06/13 11:11:55;;;;;;;3.78;1.83;;;23.00;42.80;;;;;;5033358;28;20041;-78
2023/06/13 11:14:32;;;;;;;2.78;1.35;;;23.00;42.90;;;;;;5033331;28;20048;-77
2023/06/13 11:16:58;;;;;;;5.07;1.65;;;23.00;43.00;;;;;;5033541;28;20432;-77
2023/06/13 11:19:26;;;;;;;3.22;1.73;;;23.00;43.00;;;;;;5016860;28;20143;-77
2023/06/13 11:22:10;;;;;;;2.85;1.63;;;23.00;43.00;;;;;;5016729;28;20045;-77
2023/06/13 11:24:36;;;;;;;2.80;1.50;;;23.00;42.30;;;;;;5032738;28;20056;-77
2023/06/13 11:27:13;;;;;;;3.30;1.70;;;23.00;43.10;;;;;;5016453;28;20048;-77
2023/06/13 11:29:39;;;;;;;5.97;2.05;;;23.00;42.80;;;;;;5016592;28;20036;-77
2023/06/13 11:32:06;;;;;;;3.97;2.05;;;23.00;43.10;;;;;;5016544;28;20409;-77
2023/06/13 11:34:33;;;;;;;3.67;1.83;;;23.10;43.20;;;;;;5033307;28;20525;-77
2023/06/13 11:37:05;;;;;;;2.75;1.70;;;23.10;43.30;;;;;;5032938;28;20142;-77
2023/06/13 11:39:37;;;;;;;3.15;2.03;;;23.10;42.60;;;;;;5032566;28;20055;-77
2023/06/13 11:42:04;;;;;;;3.92;1.83;;;23.10;42.80;;;;;;5032733;28;20141;-77
2023/06/13 11:44:30;;;;;;;4.55;1.90;;;23.10;42.80;;;;;;5032712;28;20056;-77
2023/06/13 11:46:56;;;;;;;3.00;1.58;;;23.10;42.70;;;;;;5032950;28;20398;-77
2023/06/13 11:49:22;;;;;;;3.28;1.60;;;23.10;42.60;;;;;;5032545;28;20466;-77
2023/06/13 11:51:47;;;;;;;3.33;1.80;;;23.10;42.80;;;;;;5016544;28;20078;-77
2023/06/13 11:54:13;;;;;;;3.22;1.60;;;23.10;42.40;;;;;;5032501;28;20509;-77
2023/06/13 11:56:51;;;;;;;4.25;1.70;;;23.10;42.50;;;;;;5032695;28;20044;-77
2023/06/13 11:59:20;;;;;;;3.95;1.50;;;23.10;42.20;;;;;;5032415;28;20119;-77
2023/06/13 12:01:54;;;;;;;3.35;1.60;;;23.10;42.50;;;;;;5032621;28;20041;-77
2023/06/13 12:04:25;;;;;;;3.33;1.50;;;23.10;42.40;;;;;;5016006;28;20044;-77
2023/06/13 12:06:52;;;;;;;4.57;1.88;;;23.20;43.20;;;;;;5015794;28;20521;-77
2023/06/13 12:09:18;;;;;;;4.35;1.67;;;23.30;42.50;;;;;;5032491;28;20062;-77
2023/06/13 12:11:45;;;;;;;2.90;1.60;;;23.30;42.80;;;;;;5016124;28;20076;-76
2023/06/13 12:14:12;;;;;;;4.13;2.08;;;23.20;43.00;;;;;;5016444;28;20491;-77
2023/06/13 12:16:39;;;;;;;2.95;1.73;;;23.30;43.40;;;;;;5032397;28;20045;-77
2023/06/13 12:19:06;;;;;;;3.22;1.75;;;23.30;43.50;;;;;;5032343;28;20433;-78
2023/06/13 12:21:34;;;;;;;2.90;1.45;;;23.30;43.30;;;;;;5015937;28;20045;-77
2023/06/13 12:24:02;;;;;;;4.03;1.80;;;23.40;43.30;;;;;;5016017;28;20053;-77
2023/06/13 12:26:31;;;;;;;5.38;1.83;;;23.50;43.40;;;;;;5032219;28;20556;-77
2023/06/13 12:28:59;;;;;;;4.50;2.13;;;23.50;42.90;;;;;;5050201;28;20040;-77
2023/06/13 12:31:38;;;;;;;2.75;1.55;;;23.50;42.60;;;;;;5032416;28;20423;-77
2023/06/13 12:34:29;;;;;;;3.38;1.83;;;23.50;42.00;;;;;;5032115;28;20036;-77
2023/06/13 12:37:03;;;;;;;4.35;1.50;;;23.50;42.40;;;;;;5032832;28;20045;-76
2023/06/13 12:39:33;;;;;;;2.80;1.52;;;23.50;43.00;;;;;;5015906;28;20041;-77
2023/06/13 12:42:07;;;;;;;3.70;1.90;;;23.50;43.00;;;;;;5032133;28;20040;-77
2023/06/13 12:44:34;;;;;;;2.35;1.40;;;23.50;43.00;;;;;;5032099;28;20151;-77
2023/06/13 12:47:04;;;;;;;3.13;1.63;;;23.50;43.20;;;;;;5032103;28;20037;-78
2023/06/13 12:49:38;;;;;;;4.40;1.77;;;23.50;43.40;;;;;;5015663;28;20040;-77
2023/06/13 12:52:06;;;;;;;2.88;1.50;;;23.50;43.30;;;;;;5015700;28;20124;-75